Time;durP1;ratioP1;P1;durP2;ratioP2;P2;SDS_P1;SDS_P2;PMS_P1;PMS_P2;Temp;Humidity;BMP_temperature;BMP_pressure;BME280_temperature;BME280_humidity;BME280_pressure;Samples;Min_cycle;Max_cycle;Signal;HPM_P1;HPM_P2
2023/11/21 00:00:34;;;;;;;51.55;25.00;;;9.10;99.90;;;;;;5002577;28;20052;-71
2023/11/21 00:02:59;;;;;;;50.35;24.20;;;9.20;99.90;;;;;;5005974;28;20037;-71
2023/11/21 00:05:25;;;;;;;44.08;23.60;;;9.20;99.90;;;;;;5003570;28;20041;-71
2023/11/21 00:07:51;;;;;;;47.25;22.95;;;9.20;99.90;;;;;;4990698;28;20038;-71
2023/11/21 00:10:17;;;;;;;62.40;26.48;;;9.20;99.90;;;;;;5001446;28;20053;-72
2023/11/21 00:12:43;;;;;;;48.30;23.83;;;9.20;99.90;;;;;;4988737;28;20041;-72
2023/11/21 00:15:12;;;;;;;40.53;23.13;;;9.20;99.90;;;;;;5002323;28;20455;-72
2023/11/21 00:17:39;;;;;;;70.25;28.52;;;9.20;99.90;;;;;;4996298;28;20160;-71
2023/11/21 00:20:12;;;;;;;50.80;24.42;;;9.20;99.90;;;;;;4993958;28;20041;-70
2023/11/21 00:22:38;;;;;;;44.55;24.02;;;9.20;99.90;;;;;;4977503;28;20056;-70
2023/11/21 00:25:04;;;;;;;45.97;25.63;;;9.20;99.90;;;;;;5004140;28;20046;-70
2023/11/21 00:27:30;;;;;;;46.28;23.77;;;9.20;99.90;;;;;;4986321;28;20041;-71
2023/11/21 00:29:56;;;;;;;42.92;23.80;;;9.20;99.90;;;;;;5000339;28;20053;-70
2023/11/21 00:32:22;;;;;;;49.75;25.90;;;9.20;99.90;;;;;;5002410;28;20112;-70
2023/11/21 00:34:50;;;;;;;43.55;24.65;;;9.20;99.90;;;;;;5006915;28;20057;-70
2023/11/21 00:37:16;;;;;;;51.17;25.75;;;9.30;99.90;;;;;;4994485;28;20481;-71
2023/11/21 00:39:42;;;;;;;43.00;23.83;;;9.20;99.90;;;;;;5007251;28;20060;-72
2023/11/21 00:42:08;;;;;;;57.58;26.30;;;9.20;99.90;;;;;;5008651;28;20051;-71
2023/11/21 00:44:37;;;;;;;51.40;24.70;;;9.20;99.90;;;;;;5008532;28;20145;-72
2023/11/21 00:47:03;;;;;;;58.88;25.85;;;9.20;99.90;;;;;;4988496;28;20052;-72
2023/11/21 00:49:32;;;;;;;49.63;24.83;;;9.20;99.90;;;;;;5004068;28;20041;-71
2023/11/21 00:51:58;;;;;;;56.95;26.67;;;9.20;99.90;;;;;;4999002;28;20500;-71
2023/11/21 00:54:24;;;;;;;46.55;24.05;;;9.10;99.90;;;;;;5001376;28;20111;-72
2023/11/21 00:56:49;;;;;;;55.05;25.45;;;9.10;99.90;;;;;;4992509;28;20053;-71
2023/11/21 00:59:15;;;;;;;55.35;24.77;;;9.10;99.90;;;;;;5005917;28;20044;-71
2023/11/21 01:01:41;;;;;;;41.92;22.38;;;9.20;99.90;;;;;;4999243;28;20163;-71
2023/11/21 01:04:06;;;;;;;46.60;22.85;;;9.10;99.90;;;;;;5002758;28;20045;-71
2023/11/21 01:06:33;;;;;;;47.30;23.33;;;9.20;99.90;;;;;;5002043;28;20061;-72
2023/11/21 01:08:59;;;;;;;51.47;22.73;;;9.20;99.90;;;;;;5001820;28;20241;-72
2023/11/21 01:11:24;;;;;;;43.85;23.30;;;9.20;99.90;;;;;;4989372;28;20080;-71
2023/11/21 01:13:50;;;;;;;46.58;21.92;;;9.20;99.90;;;;;;4999564;28;20658;-71
2023/11/21 01:16:16;;;;;;;46.83;22.80;;;9.20;99.90;;;;;;4991021;28;20126;-72
2023/11/21 01:18:42;;;;;;;51.15;23.27;;;9.10;99.90;;;;;;5006655;28;20053;-71
2023/11/21 01:21:08;;;;;;;42.03;20.55;;;9.10;99.90;;;;;;5008655;28;20126;-71
2023/11/21 01:23:35;;;;;;;42.05;21.60;;;9.10;99.90;;;;;;4990479;28;20051;-71
2023/11/21 01:26:00;;;;;;;40.47;21.67;;;9.10;99.90;;;;;;5002221;28;20037;-71
2023/11/21 01:28:26;;;;;;;45.03;21.52;;;9.10;99.90;;;;;;5008368;28;20067;-71
2023/11/21 01:30:56;;;;;;;50.63;23.10;;;9.10;99.90;;;;;;5002226;28;20497;-72
2023/11/21 01:33:24;;;;;;;44.05;21.17;;;9.10;99.90;;;;;;5000085;28;20053;-71
2023/11/21 01:35:52;;;;;;;42.80;21.70;;;9.10;99.90;;;;;;5003947;28;20505;-71
2023/11/21 01:38:18;;;;;;;52.22;23.60;;;9.10;99.90;;;;;;5009403;28;20038;-71
2023/11/21 01:40:44;;;;;;;44.55;21.13;;;9.10;99.90;;;;;;5002906;28;20099;-71
2023/11/21 01:43:10;;;;;;;43.00;20.70;;;9.10;99.90;;;;;;5006581;28;20107;-71
2023/11/21 01:45:36;;;;;;;46.35;20.65;;;9.10;99.90;;;;;;5004640;28;20269;-71
2023/11/21 01:48:03;;;;;;;43.17;20.73;;;9.10;99.90;;;;;;5006774;28;20136;-71
2023/11/21 01:50:29;;;;;;;44.25;21.63;;;9.10;99.90;;;;;;4992154;28;20532;-72
2023/11/21 01:52:55;;;;;;;46.40;22.65;;;9.20;99.90;;;;;;4990837;28;20128;-72
2023/11/21 01:55:21;;;;;;;50.90;23.20;;;9.20;99.90;;;;;;5003936;28;20125;-71
2023/11/21 01:57:48;;;;;;;45.50;22.40;;;9.20;99.90;;;;;;4991268;28;20045;-71
2023/11/21 02:00:16;;;;;;;43.35;20.63;;;9.20;99.90;;;;;;4992601;28;20132;-71
2023/11/21 02:02:47;;;;;;;65.97;25.35;;;9.20;99.90;;;;;;5001551;28;20559;-71
2023/11/21 02:05:15;;;;;;;54.75;23.23;;;9.20;99.90;;;;;;4995605;28;20049;-72
2023/11/21 02:07:44;;;;;;;55.60;25.75;;;9.20;99.90;;;;;;4993284;28;20524;-71
2023/11/21 02:10:14;;;;;;;64.75;26.20;;;9.20;99.90;;;;;;5010019;28;20095;-71
2023/11/21 02:12:44;;;;;;;59.05;24.50;;;9.20;99.90;;;;;;5009666;28;20049;-71
2023/11/21 02:15:26;;;;;;;54.63;23.70;;;9.20;99.90;;;;;;5006345;28;20072;-72
2023/11/21 02:17:53;;;;;;;54.95;24.85;;;9.20;99.90;;;;;;4994372;28;20480;-72
2023/11/21 02:20:29;;;;;;;63.92;25.48;;;9.20;99.90;;;;;;5011979;28;20170;-72
2023/11/21 02:22:59;;;;;;;56.17;25.65;;;9.20;99.90;;;;;;4992155;28;20085;-73
2023/11/21 02:25:31;;;;;;;;;;;9.20;99.90;;;;;;4990466;28;20096;-72
2023/11/21 02:27:59;;;;;;;62.80;25.73;;;9.20;99.90;;;;;;4993678;28;19924;-72
2023/11/21 02:30:25;;;;;;;97.97;32.70;;;9.20;99.90;;;;;;5004154;28;20052;-73
2023/11/21 02:32:54;;;;;;;62.70;27.77;;;9.20;99.90;;;;;;4989207;28;20045;-72
2023/11/21 02:35:23;;;;;;;67.82;28.13;;;9.20;99.90;;;;;;4990899;28;20099;-72
2023/11/21 02:37:49;;;;;;;57.80;26.73;;;9.20;99.90;;;;;;4991122;28;20052;-73
2023/11/21 02:40:20;;;;;;;59.45;28.00;;;9.20;99.90;;;;;;5009005;28;20041;-73
2023/11/21 02:42:52;;;;;;;;;;;9.20;99.90;;;;;;5008879;28;20045;-73
2023/11/21 02:45:20;;;;;;;68.03;27.95;;;9.20;99.90;;;;;;5007343;28;19921;-73
2023/11/21 02:47:46;;;;;;;67.10;26.98;;;9.20;99.90;;;;;;4987622;28;20214;-72
2023/11/21 02:50:12;;;;;;;75.57;29.95;;;9.20;99.90;;;;;;4992788;28;20130;-72
2023/11/21 02:52:39;;;;;;;68.15;27.80;;;9.20;99.90;;;;;;4999192;28;20444;-72
2023/11/21 02:55:07;;;;;;;78.72;29.75;;;9.20;99.90;;;;;;4994473;28;20084;-73
2023/11/21 02:57:33;;;;;;;70.68;29.73;;;9.30;99.90;;;;;;5013759;28;20040;-72
2023/11/21 02:59:59;;;;;;;61.78;27.48;;;9.20;99.90;;;;;;4999333;28;20467;-72
2023/11/21 03:02:25;;;;;;;66.05;29.33;;;9.30;99.90;;;;;;4984500;28;20049;-72
2023/11/21 03:04:52;;;;;;;72.85;31.48;;;9.30;99.90;;;;;;4990953;28;20951;-72
2023/11/21 03:07:24;;;;;;;108.82;35.50;;;9.30;99.90;;;;;;5012468;28;20518;-72
2023/11/21 03:09:50;;;;;;;80.65;31.50;;;9.20;99.90;;;;;;5009033;28;20099;-72
2023/11/21 03:12:16;;;;;;;74.68;32.58;;;9.30;99.90;;;;;;5007977;28;20030;-72
2023/11/21 03:14:42;;;;;;;69.20;31.13;;;9.30;99.90;;;;;;5011214;28;21122;-72
2023/11/21 03:17:07;;;;;;;67.00;31.50;;;9.30;99.90;;;;;;4995386;28;20049;-72
2023/11/21 03:19:33;;;;;;;73.57;31.23;;;9.30;99.90;;;;;;5002681;28;20068;-72
2023/11/21 03:21:59;;;;;;;79.22;33.45;;;9.30;99.90;;;;;;5008148;28;20130;-72
2023/11/21 03:24:26;;;;;;;74.60;31.67;;;9.30;99.90;;;;;;4992247;28;20040;-72
2023/11/21 03:26:55;;;;;;;87.47;33.53;;;9.40;99.90;;;;;;5006349;28;20417;-73
2023/11/21 03:29:21;;;;;;;78.03;32.80;;;9.30;99.90;;;;;;5007046;28;20045;-72
2023/11/21 03:31:46;;;;;;;71.88;33.00;;;9.30;99.90;;;;;;4989822;28;20037;-74
2023/11/21 03:34:23;;;;;;;85.68;34.50;;;9.30;99.90;;;;;;5009938;28;20057;-73
2023/11/21 03:36:48;;;;;;;68.07;31.30;;;9.30;99.90;;;;;;4991411;28;20034;-72
2023/11/21 03:39:14;;;;;;;69.10;32.35;;;9.30;99.90;;;;;;5015794;28;20400;-72
2023/11/21 03:41:40;;;;;;;74.18;30.40;;;9.30;99.90;;;;;;4988810;28;20112;-72
2023/11/21 03:44:06;;;;;;;77.85;33.80;;;9.30;99.90;;;;;;5009506;28;20045;-72
2023/11/21 03:46:31;;;;;;;67.35;30.25;;;9.30;99.90;;;;;;5009319;28;20044;-73
2023/11/21 03:48:57;;;;;;;68.53;30.35;;;9.30;99.90;;;;;;4995051;28;20049;-72
2023/11/21 03:51:23;;;;;;;74.35;32.13;;;9.30;99.90;;;;;;5016605;28;20048;-72
2023/11/21 03:53:48;;;;;;;74.05;32.80;;;9.30;99.90;;;;;;5000875;28;20154;-72
2023/11/21 03:56:14;;;;;;;82.30;33.35;;;9.40;99.90;;;;;;4981729;28;20041;-72
2023/11/21 03:58:41;;;;;;;84.18;32.75;;;9.30;99.90;;;;;;4993222;28;20036;-72
2023/11/21 04:01:06;;;;;;;83.90;34.00;;;9.30;99.90;;;;;;4993727;28;20037;-72
2023/11/21 04:03:32;;;;;;;91.72;35.47;;;9.30;99.90;;;;;;4992269;28;20049;-73
2023/11/21 04:05:58;;;;;;;74.80;33.42;;;9.30;99.90;;;;;;5005131;28;20045;-73
2023/11/21 04:08:25;;;;;;;79.30;35.10;;;9.30;99.90;;;;;;5001907;28;20409;-73
2023/11/21 04:10:50;;;;;;;74.10;34.13;;;9.30;99.90;;;;;;5007347;28;20575;-73
2023/11/21 04:13:16;;;;;;;77.75;34.30;;;9.30;99.90;;;;;;5010558;28;20124;-74
2023/11/21 04:15:42;;;;;;;79.60;34.47;;;9.30;99.90;;;;;;4995107;28;20053;-75
2023/11/21 04:18:08;;;;;;;73.15;33.20;;;9.30;99.90;;;;;;5013392;28;20056;-75
2023/11/21 04:20:34;;;;;;;74.00;32.53;;;9.30;99.90;;;;;;5006192;28;20440;-75
2023/11/21 04:22:59;;;;;;;68.00;33.28;;;9.30;99.90;;;;;;5003987;28;20049;-74
2023/11/21 04:25:25;;;;;;;76.13;33.75;;;9.30;99.90;;;;;;5006562;28;20492;-75
2023/11/21 04:27:54;;;;;;;86.55;37.28;;;9.30;99.90;;;;;;4989953;28;20183;-75
2023/11/21 04:30:20;;;;;;;82.15;35.83;;;9.30;99.90;;;;;;4992697;28;20045;-75
2023/11/21 04:32:46;;;;;;;71.25;35.08;;;9.30;99.90;;;;;;5000906;28;20110;-75
2023/11/21 04:35:12;;;;;;;77.75;35.90;;;9.30;99.90;;;;;;5018371;28;20484;-75
2023/11/21 04:37:38;;;;;;;76.60;34.25;;;9.30;99.90;;;;;;5003291;28;20049;-75
2023/11/21 04:40:07;;;;;;;73.38;32.78;;;9.30;99.90;;;;;;5001877;28;20049;-75
2023/11/21 04:42:36;;;;;;;90.73;36.67;;;9.30;99.90;;;;;;4990818;28;20045;-75
2023/11/21 04:45:09;;;;;;;75.60;34.13;;;9.30;99.90;;;;;;4990920;28;20937;-75
2023/11/21 04:47:35;;;;;;;78.25;36.42;;;9.30;99.90;;;;;;5007611;28;20288;-75
2023/11/21 04:50:01;;;;;;;82.63;35.80;;;9.30;99.90;;;;;;4989141;28;20045;-75
2023/11/21 04:52:27;;;;;;;81.32;35.88;;;9.30;99.90;;;;;;5004835;28;20045;-75
2023/11/21 04:54:54;;;;;;;76.47;35.83;;;9.30;99.90;;;;;;5003926;28;20041;-75
2023/11/21 04:57:21;;;;;;;68.38;33.58;;;9.30;99.90;;;;;;5004505;28;20483;-75
2023/11/21 04:59:48;;;;;;;77.70;35.60;;;9.30;99.90;;;;;;4992136;28;20531;-75
2023/11/21 05:02:14;;;;;;;67.80;32.08;;;9.30;99.90;;;;;;4993537;28;20543;-74
2023/11/21 05:04:43;;;;;;;67.55;32.85;;;9.30;99.90;;;;;;5002158;28;20037;-75
2023/11/21 05:07:09;;;;;;;57.95;32.45;;;9.30;99.90;;;;;;5006385;28;20048;-75
2023/11/21 05:09:35;;;;;;;66.10;31.75;;;9.30;99.90;;;;;;5005697;28;20488;-75
2023/11/21 05:12:01;;;;;;;64.18;31.33;;;9.30;99.90;;;;;;4991373;28;20107;-72
2023/11/21 05:14:30;;;;;;;55.15;31.08;;;9.30;99.90;;;;;;4982606;28;20037;-72
2023/11/21 05:16:56;;;;;;;58.78;31.27;;;9.30;99.90;;;;;;4998240;28;20046;-72
2023/11/21 05:19:22;;;;;;;63.33;32.00;;;9.20;99.90;;;;;;4994666;28;20141;-72
2023/11/21 05:21:48;;;;;;;69.10;33.00;;;9.20;99.90;;;;;;5000981;28;20112;-72
2023/11/21 05:24:14;;;;;;;69.82;33.15;;;9.20;99.90;;;;;;4988643;28;20194;-72
2023/11/21 05:26:39;;;;;;;82.82;34.22;;;9.30;99.90;;;;;;4997805;28;20052;-72
2023/11/21 05:29:05;;;;;;;82.82;35.00;;;9.20;99.90;;;;;;5005322;28;20051;-72
2023/11/21 05:31:31;;;;;;;74.82;34.67;;;9.20;99.90;;;;;;4999376;28;20046;-72
2023/11/21 05:33:57;;;;;;;62.17;32.38;;;9.30;99.90;;;;;;5003635;28;20051;-72
2023/11/21 05:36:23;;;;;;;67.75;33.45;;;9.30;99.90;;;;;;5005554;28;20045;-72
2023/11/21 05:38:48;;;;;;;67.10;31.38;;;9.30;99.90;;;;;;4987531;28;20127;-72
2023/11/21 05:41:15;;;;;;;72.90;33.63;;;9.30;99.90;;;;;;4998602;28;20049;-75
2023/11/21 05:43:41;;;;;;;70.68;33.65;;;9.30;99.90;;;;;;5001807;28;20046;-75
2023/11/21 05:46:07;;;;;;;72.05;33.22;;;9.30;99.90;;;;;;4999094;28;20038;-74
2023/11/21 05:48:33;;;;;;;71.32;34.05;;;9.30;99.90;;;;;;4999613;28;20056;-75
2023/11/21 05:50:59;;;;;;;76.32;34.00;;;9.30;99.90;;;;;;5002643;28;20042;-75
2023/11/21 05:53:24;;;;;;;67.88;32.25;;;9.30;99.90;;;;;;4998605;28;20084;-75
2023/11/21 05:55:50;;;;;;;76.18;33.42;;;9.30;99.90;;;;;;4991908;28;20408;-75
2023/11/21 05:58:16;;;;;;;67.53;33.80;;;9.30;99.90;;;;;;4996355;28;20115;-72
2023/11/21 06:00:42;;;;;;;67.28;32.17;;;9.30;99.90;;;;;;5002110;28;20056;-72
2023/11/21 06:03:08;;;;;;;66.55;31.95;;;9.30;99.90;;;;;;4985697;28;20084;-72
2023/11/21 06:05:34;;;;;;;67.53;31.10;;;9.30;99.90;;;;;;5007323;28;20081;-72
2023/11/21 06:08:00;;;;;;;66.15;31.90;;;9.30;99.90;;;;;;5005676;28;20054;-72
2023/11/21 06:10:28;;;;;;;62.58;29.85;;;9.30;99.90;;;;;;4987742;28;20049;-72
2023/11/21 06:12:54;;;;;;;57.75;29.00;;;9.30;99.90;;;;;;5005753;28;20599;-73
2023/11/21 06:15:22;;;;;;;65.05;30.27;;;9.30;99.90;;;;;;5003571;28;20413;-73
2023/11/21 06:17:52;;;;;;;63.78;29.75;;;9.30;99.90;;;;;;5007189;28;20085;-72
2023/11/21 06:20:18;;;;;;;64.38;29.48;;;9.30;99.90;;;;;;4986255;28;20049;-73
2023/11/21 06:22:45;;;;;;;63.92;28.10;;;9.30;99.90;;;;;;5008204;28;20057;-73
2023/11/21 06:25:15;;;;;;;68.57;29.80;;;9.30;99.90;;;;;;4996614;28;20049;-73
2023/11/21 06:27:47;;;;;;;62.47;28.02;;;9.30;99.90;;;;;;4996669;28;20045;-73
2023/11/21 06:30:15;;;;;;;77.10;31.17;;;9.30;99.90;;;;;;4991536;28;21319;-72
2023/11/21 06:32:41;;;;;;;71.03;30.75;;;9.30;99.90;;;;;;5000544;28;20408;-72
2023/11/21 06:35:11;;;;;;;79.85;32.95;;;9.40;99.90;;;;;;5001046;28;20081;-72
2023/11/21 06:37:37;;;;;;;76.88;31.25;;;9.30;99.90;;;;;;4980199;28;20082;-73
2023/11/21 06:40:06;;;;;;;77.95;31.80;;;9.30;99.90;;;;;;4991012;28;20523;-73
2023/11/21 06:42:33;;;;;;;59.70;29.30;;;9.30;99.90;;;;;;4996237;28;21175;-72
2023/11/21 06:44:59;;;;;;;56.88;27.23;;;9.30;99.90;;;;;;5005227;28;20055;-72
2023/11/21 06:47:25;;;;;;;60.38;28.20;;;9.30;99.90;;;;;;5003019;28;20128;-72
2023/11/21 06:49:52;;;;;;;62.20;29.40;;;9.30;99.90;;;;;;5005992;28;20104;-72
2023/11/21 06:52:19;;;;;;;54.78;26.55;;;9.30;99.90;;;;;;4990394;28;20507;-72
2023/11/21 06:54:45;;;;;;;56.80;27.55;;;9.30;99.90;;;;;;4994660;28;20397;-72
2023/11/21 06:57:11;;;;;;;50.05;26.70;;;9.30;99.90;;;;;;4998427;28;20514;-72
2023/11/21 06:59:37;;;;;;;48.20;24.80;;;9.30;99.90;;;;;;4991157;28;20075;-72
2023/11/21 07:02:06;;;;;;;47.45;25.33;;;9.30;99.90;;;;;;5001695;28;20069;-73
2023/11/21 07:04:32;;;;;;;42.83;24.80;;;9.30;99.90;;;;;;5003718;28;20056;-73
2023/11/21 07:06:58;;;;;;;44.78;24.38;;;9.30;99.90;;;;;;4996069;28;20049;-72
2023/11/21 07:09:27;;;;;;;41.38;23.08;;;9.30;99.90;;;;;;4992814;28;20105;-72
2023/11/21 07:11:54;;;;;;;41.00;22.25;;;9.30;99.90;;;;;;4994640;28;20030;-72
2023/11/21 07:14:20;;;;;;;36.42;21.73;;;9.30;99.90;;;;;;4983762;28;20071;-73
2023/11/21 07:16:46;;;;;;;40.40;21.58;;;9.30;99.90;;;;;;4993733;28;20053;-73
2023/11/21 07:19:12;;;;;;;35.28;20.75;;;9.30;99.90;;;;;;4997862;28;20069;-74
2023/11/21 07:21:39;;;;;;;38.42;21.35;;;9.30;99.90;;;;;;5006729;28;20102;-80
2023/11/21 07:24:06;;;;;;;37.85;21.33;;;9.30;99.90;;;;;;4993747;28;20048;-79
2023/11/21 07:26:33;;;;;;;38.45;21.60;;;9.30;99.90;;;;;;4996761;28;20041;-80
2023/11/21 07:28:59;;;;;;;40.85;22.25;;;9.30;99.90;;;;;;5009025;28;20129;-79
2023/11/21 07:31:25;;;;;;;39.38;21.98;;;9.20;99.90;;;;;;5011763;28;20050;-80
2023/11/21 07:33:52;;;;;;;39.15;22.85;;;9.20;99.90;;;;;;5005474;28;20069;-78
2023/11/21 07:36:20;;;;;;;38.22;22.75;;;9.20;99.90;;;;;;4990446;28;22050;-77
2023/11/21 07:38:46;;;;;;;39.05;22.23;;;9.30;99.90;;;;;;4991144;28;20060;-77
2023/11/21 07:41:15;;;;;;;37.25;22.00;;;9.20;99.90;;;;;;4992008;28;20485;-78
2023/11/21 07:43:42;;;;;;;40.33;22.95;;;9.30;99.90;;;;;;4994950;28;20045;-77
2023/11/21 07:46:07;;;;;;;38.15;21.75;;;9.20;99.90;;;;;;4992398;28;20052;-77
2023/11/21 07:48:34;;;;;;;41.30;23.15;;;9.30;99.90;;;;;;5017703;28;20073;-78
2023/11/21 07:51:03;;;;;;;38.05;22.02;;;9.20;99.90;;;;;;5004660;28;20042;-78
2023/11/21 07:53:30;;;;;;;38.05;21.65;;;9.30;99.90;;;;;;4985319;28;20492;-78
2023/11/21 07:56:09;;;;;;;34.53;21.52;;;9.30;99.90;;;;;;5007290;28;20083;-78
2023/11/21 07:58:36;;;;;;;37.72;22.83;;;9.30;99.90;;;;;;5002689;28;20563;-78
2023/11/21 08:01:03;;;;;;;36.40;21.63;;;9.20;99.90;;;;;;4995073;28;20160;-78
2023/11/21 08:03:30;;;;;;;40.22;22.33;;;9.30;99.90;;;;;;4987037;28;20048;-78
2023/11/21 08:05:59;;;;;;;41.28;22.88;;;9.30;99.90;;;;;;4986774;28;20073;-78
2023/11/21 08:08:25;;;;;;;38.78;21.02;;;9.30;99.90;;;;;;5001732;28;20041;-78
2023/11/21 08:10:58;;;;;;;40.30;21.83;;;9.30;99.90;;;;;;5004360;28;20044;-78
2023/11/21 08:13:33;;;;;;;37.25;20.20;;;9.30;99.90;;;;;;5006237;28;20041;-78
2023/11/21 08:16:04;;;;;;;45.00;21.35;;;9.30;99.90;;;;;;4991411;28;20361;-78
2023/11/21 08:18:30;;;;;;;42.92;24.10;;;9.30;99.90;;;;;;4987057;28;20111;-77
2023/11/21 08:20:56;;;;;;;44.47;23.48;;;9.30;99.90;;;;;;5006963;28;20053;-78
2023/11/21 08:23:25;;;;;;;42.88;23.15;;;9.30;99.90;;;;;;4988662;28;20053;-78
2023/11/21 08:25:55;;;;;;;58.55;24.83;;;9.30;99.90;;;;;;5007761;28;20065;-78
2023/11/21 08:28:25;;;;;;;64.88;26.98;;;9.30;99.90;;;;;;4986977;28;20053;-79
2023/11/21 08:30:52;;;;;;;65.85;26.25;;;9.30;99.90;;;;;;5010411;28;20051;-77
2023/11/21 08:33:18;;;;;;;58.35;25.77;;;9.30;99.90;;;;;;4993122;28;20029;-77
2023/11/21 08:35:45;;;;;;;60.60;25.92;;;9.30;99.90;;;;;;4995509;28;20049;-78
2023/11/21 08:38:12;;;;;;;52.58;25.23;;;9.20;99.90;;;;;;5008949;28;20044;-78
2023/11/21 08:40:38;;;;;;;55.00;25.35;;;9.20;99.90;;;;;;5006145;28;20079;-78
2023/11/21 08:43:06;;;;;;;48.80;24.05;;;9.20;99.90;;;;;;5006130;28;20073;-77
2023/11/21 08:45:34;;;;;;;44.42;24.45;;;9.10;99.90;;;;;;4983840;28;20045;-77
2023/11/21 08:48:00;;;;;;;41.63;21.98;;;9.10;99.90;;;;;;5005791;28;20065;-77
2023/11/21 08:50:26;;;;;;;40.30;24.05;;;9.10;99.90;;;;;;4986316;28;20049;-77
2023/11/21 08:52:52;;;;;;;42.30;22.88;;;9.10;99.90;;;;;;4991153;28;20454;-77
2023/11/21 08:55:19;;;;;;;44.53;25.13;;;9.10;99.90;;;;;;5003752;28;20123;-77
2023/11/21 08:57:48;;;;;;;44.30;25.92;;;9.10;99.90;;;;;;4991949;28;20042;-77
2023/11/21 09:00:16;;;;;;;49.08;26.15;;;9.10;99.90;;;;;;5005573;28;20051;-77
2023/11/21 09:02:43;;;;;;;58.30;28.33;;;9.10;99.90;;;;;;4986184;28;20049;-78
2023/11/21 09:05:10;;;;;;;61.28;31.67;;;9.10;99.90;;;;;;5007206;28;20063;-80
2023/11/21 09:07:38;;;;;;;72.88;35.78;;;9.00;99.90;;;;;;5007992;28;20128;-80
2023/11/21 09:10:07;;;;;;;71.35;37.08;;;9.00;99.90;;;;;;4993388;28;20060;-79
2023/11/21 09:12:34;;;;;;;69.10;36.72;;;8.90;99.90;;;;;;4990800;28;20132;-80
2023/11/21 09:15:02;;;;;;;72.93;38.05;;;8.90;99.90;;;;;;5003435;28;20050;-80
2023/11/21 09:17:28;;;;;;;70.07;38.25;;;8.90;99.90;;;;;;4988030;28;20079;-80
2023/11/21 09:19:53;;;;;;;62.40;36.92;;;8.80;99.90;;;;;;5000921;28;20403;-80
2023/11/21 09:22:19;;;;;;;63.47;37.70;;;8.80;99.90;;;;;;4988655;28;20106;-77
2023/11/21 09:24:45;;;;;;;58.95;36.45;;;8.80;99.90;;;;;;5007782;28;20038;-77
2023/11/21 09:27:11;;;;;;;57.28;35.75;;;8.80;99.90;;;;;;5008422;28;20038;-76
2023/11/21 09:29:38;;;;;;;50.40;34.85;;;8.80;99.90;;;;;;5005667;28;20401;-77
2023/11/21 09:32:06;;;;;;;45.42;33.70;;;8.80;99.90;;;;;;4986945;28;20518;-77
2023/11/21 09:34:38;;;;;;;46.35;32.83;;;8.80;99.90;;;;;;4995795;28;21077;-76
2023/11/21 09:37:05;;;;;;;48.72;31.52;;;8.80;99.90;;;;;;4981909;28;20504;-76
2023/11/21 09:39:34;;;;;;;46.13;31.92;;;8.80;99.90;;;;;;4988830;28;20665;-76
2023/11/21 09:42:12;;;;;;;41.30;30.83;;;8.80;99.90;;;;;;4989956;28;20115;-76
2023/11/21 09:44:56;;;;;;;41.78;31.88;;;8.80;99.90;;;;;;4986246;28;20489;-76
2023/11/21 09:47:25;;;;;;;40.38;31.85;;;8.80;99.90;;;;;;5004273;28;20054;-76
2023/11/21 09:49:54;;;;;;;41.22;32.28;;;8.70;99.90;;;;;;4997819;28;20038;-75
2023/11/21 09:52:26;;;;;;;39.53;31.77;;;8.70;99.90;;;;;;4977403;28;20064;-76
2023/11/21 09:54:58;;;;;;;40.92;31.55;;;8.70;99.90;;;;;;4990886;28;20037;-79
2023/11/21 09:57:25;;;;;;;41.17;32.63;;;8.70;99.90;;;;;;4983474;28;20172;-79
2023/11/21 09:59:56;;;;;;;38.40;31.55;;;8.70;99.90;;;;;;5005287;28;20030;-76
2023/11/21 10:02:29;;;;;;;38.80;29.90;;;8.70;99.90;;;;;;4995429;28;20086;-77
2023/11/21 10:04:56;;;;;;;39.58;31.05;;;8.60;99.90;;;;;;4988981;28;20143;-76
2023/11/21 10:07:23;;;;;;;34.75;27.73;;;8.60;99.90;;;;;;5001812;28;20531;-76
2023/11/21 10:09:50;;;;;;;34.42;28.00;;;8.60;99.90;;;;;;4992442;28;20099;-76
2023/11/21 10:12:16;;;;;;;34.05;28.15;;;8.60;99.90;;;;;;4988900;28;20444;-76
2023/11/21 10:14:43;;;;;;;35.85;28.67;;;8.60;99.90;;;;;;4988740;28;20389;-76
2023/11/21 10:17:18;;;;;;;32.65;27.48;;;8.60;99.90;;;;;;4986091;28;21529;-76
2023/11/21 10:19:47;;;;;;;32.40;26.55;;;8.70;99.90;;;;;;4990827;28;20042;-75
2023/11/21 10:22:14;;;;;;;31.85;26.52;;;8.70;99.90;;;;;;4991533;28;20488;-77
2023/11/21 10:24:40;;;;;;;29.63;26.02;;;8.70;99.90;;;;;;4982419;28;20121;-76
2023/11/21 10:27:06;;;;;;;30.58;25.63;;;8.80;99.90;;;;;;5002507;28;20552;-76
2023/11/21 10:29:35;;;;;;;29.35;24.50;;;8.80;99.90;;;;;;4994229;28;21306;-76
2023/11/21 10:32:05;;;;;;;31.88;25.83;;;8.80;99.90;;;;;;5007165;28;20041;-76
2023/11/21 10:34:31;;;;;;;28.85;24.45;;;8.80;99.90;;;;;;4984475;28;20125;-77
2023/11/21 10:36:58;;;;;;;30.27;25.17;;;8.80;99.90;;;;;;4997915;28;20046;-76
2023/11/21 10:39:27;;;;;;;29.50;26.15;;;8.70;99.90;;;;;;4989265;28;20092;-76
2023/11/21 10:41:54;;;;;;;29.65;26.13;;;8.80;99.90;;;;;;4991739;28;20050;-76
2023/11/21 10:44:21;;;;;;;28.90;25.80;;;8.70;99.90;;;;;;5002217;28;20493;-76
2023/11/21 10:46:57;;;;;;;25.65;23.02;;;8.70;99.90;;;;;;4991060;28;20127;-76
2023/11/21 10:49:25;;;;;;;25.67;22.52;;;8.70;99.90;;;;;;4998760;28;20042;-76
2023/11/21 10:51:53;;;;;;;25.17;22.58;;;8.60;99.90;;;;;;5006054;28;20045;-76
2023/11/21 10:54:23;;;;;;;24.40;21.92;;;8.60;99.90;;;;;;5003789;28;20049;-76
2023/11/21 10:56:53;;;;;;;23.98;21.63;;;8.60;99.90;;;;;;4984794;28;20057;-76
2023/11/21 10:59:22;;;;;;;22.45;20.02;;;8.60;99.90;;;;;;4995362;28;20236;-76
2023/11/21 11:01:53;;;;;;;20.83;18.75;;;8.60;99.90;;;;;;5004192;28;20524;-75
2023/11/21 11:04:19;;;;;;;21.45;19.15;;;8.60;99.90;;;;;;5008483;28;20045;-75
2023/11/21 11:06:57;;;;;;;18.60;16.70;;;8.60;99.90;;;;;;5004267;28;20064;-76
2023/11/21 11:09:23;;;;;;;17.80;15.90;;;8.60;99.90;;;;;;4997227;28;20057;-76
2023/11/21 11:11:50;;;;;;;17.95;15.95;;;8.60;99.90;;;;;;4999057;28;20045;-76
2023/11/21 11:14:19;;;;;;;17.50;15.70;;;8.60;99.90;;;;;;5004058;28;20057;-76
2023/11/21 11:16:45;;;;;;;15.93;14.32;;;8.70;99.90;;;;;;5009103;28;20061;-76
2023/11/21 11:19:12;;;;;;;15.95;14.25;;;8.70;99.90;;;;;;5009883;28;20084;-76
2023/11/21 11:21:48;;;;;;;15.75;14.15;;;8.70;99.90;;;;;;4986993;28;20528;-76
2023/11/21 11:24:44;;;;;;;14.90;13.40;;;8.70;99.90;;;;;;4984516;28;20071;-76
2023/11/21 11:27:33;;;;;;;14.52;13.02;;;8.70;99.90;;;;;;4999972;28;20111;-76
2023/11/21 11:29:58;;;;;;;13.38;12.02;;;8.70;99.90;;;;;;4991659;28;20053;-75
2023/11/21 11:32:27;;;;;;;14.38;11.88;;;8.80;99.90;;;;;;5003259;28;20141;-75
2023/11/21 11:35:22;;;;;;;12.32;10.82;;;8.80;99.90;;;;;;4981657;28;20056;-76
2023/11/21 11:37:48;;;;;;;14.00;11.80;;;8.80;99.90;;;;;;5000048;28;20057;-75
2023/11/21 11:40:15;;;;;;;12.73;11.43;;;8.80;99.90;;;;;;4989573;28;20045;-76
2023/11/21 11:42:59;;;;;;;13.50;12.10;;;8.80;99.90;;;;;;4996720;28;20048;-76
2023/11/21 11:45:35;;;;;;;14.38;11.82;;;8.80;99.90;;;;;;5004871;28;20054;-75
2023/11/21 11:48:03;;;;;;;12.65;11.32;;;8.80;99.90;;;;;;5009074;28;20138;-75
2023/11/21 11:50:29;;;;;;;12.93;11.63;;;8.80;99.90;;;;;;4991821;28;20121;-75
2023/11/21 11:53:11;;;;;;;13.27;11.93;;;8.80;99.90;;;;;;4996063;28;20796;-76
2023/11/21 11:55:37;;;;;;;12.93;11.68;;;8.80;99.90;;;;;;4998383;28;20041;-76
2023/11/21 11:58:06;;;;;;;12.55;11.15;;;8.80;99.90;;;;;;4984294;28;20096;-75
2023/11/21 12:00:39;;;;;;;13.10;11.80;;;8.80;99.90;;;;;;4995737;28;20275;-75
2023/11/21 12:03:07;;;;;;;13.85;12.35;;;8.80;99.90;;;;;;4997120;28;20659;-75
2023/11/21 12:05:45;;;;;;;13.57;12.15;;;8.80;99.90;;;;;;4996801;28;20046;-75
2023/11/21 12:08:12;;;;;;;13.50;11.55;;;8.80;99.90;;;;;;4991907;28;20052;-75
2023/11/21 12:10:42;;;;;;;13.10;11.70;;;8.80;99.90;;;;;;4987762;28;20045;-74
2023/11/21 12:13:10;;;;;;;11.82;10.63;;;8.80;99.90;;;;;;4981959;28;20553;-75
2023/11/21 12:15:36;;;;;;;12.90;10.48;;;8.70;99.90;;;;;;4990232;28;20071;-75
2023/11/21 12:18:03;;;;;;;11.68;9.80;;;8.70;99.90;;;;;;4998680;28;20055;-74
2023/11/21 12:20:31;;;;;;;12.15;10.85;;;8.60;99.90;;;;;;4995868;28;20112;-76
2023/11/21 12:22:59;;;;;;;11.98;10.70;;;8.60;99.90;;;;;;4996805;28;20049;-75
2023/11/21 12:25:31;;;;;;;11.45;10.27;;;8.60;99.90;;;;;;4976251;28;20045;-75
2023/11/21 12:28:02;;;;;;;11.55;9.98;;;8.60;99.90;;;;;;4992297;28;20219;-75
2023/11/21 12:30:35;;;;;;;12.57;11.25;;;8.60;99.90;;;;;;5000045;28;20404;-75
2023/11/21 12:33:02;;;;;;;11.35;9.55;;;8.70;99.90;;;;;;4993285;28;20454;-75
2023/11/21 12:35:36;;;;;;;10.57;9.48;;;8.70;99.90;;;;;;4994750;28;20080;-75
2023/11/21 12:38:03;;;;;;;11.32;10.20;;;8.70;99.90;;;;;;4981233;28;20943;-75
2023/11/21 12:40:29;;;;;;;11.95;10.55;;;8.70;99.90;;;;;;4983382;28;20374;-75